Time;durP1;ratioP1;P1;durP2;ratioP2;P2;SDS_P1;SDS_P2;PMS_P1;PMS_P2;Temp;Humidity;BMP_temperature;BMP_pressure;BME280_temperature;BME280_humidity;BME280_pressure;Samples;Min_cycle;Max_cycle;Signal;HPM_P1;HPM_P2
2022/07/06 00:01:22;;;;;;;8.82;5.82;;;;;;;20.95;63.09;93847.66;5016588;28;20018;-78
2022/07/06 00:03:48;;;;;;;7.15;6.32;;;;;;;20.68;63.43;93840.13;5005538;28;20049;-79
2022/07/06 00:06:13;;;;;;;8.40;6.93;;;;;;;20.30;64.59;93839.47;5009795;28;20034;-80
2022/07/06 00:08:39;;;;;;;9.95;6.15;;;;;;;20.47;65.31;93848.88;5009094;28;20088;-79
2022/07/06 00:11:05;;;;;;;8.73;5.88;;;;;;;20.02;66.56;93828.38;5010451;28;20025;-79
2022/07/06 00:13:31;;;;;;;9.48;6.30;;;;;;;19.71;68.63;93835.03;5013183;28;20032;-79
2022/07/06 00:15:56;;;;;;;9.52;6.18;;;;;;;19.61;70.23;93865.34;5010507;28;20029;-81
2022/07/06 00:18:22;;;;;;;10.27;6.75;;;;;;;19.52;70.69;93854.06;5008975;28;20041;-79
2022/07/06 00:20:47;;;;;;;8.68;6.47;;;;;;;19.69;70.46;93883.19;5011160;28;20088;-80
2022/07/06 00:23:12;;;;;;;10.40;7.75;;;;;;;19.23;71.58;93869.13;5010837;28;20022;-79
2022/07/06 00:25:38;;;;;;;10.18;7.18;;;;;;;19.32;71.73;93877.69;5012915;28;20018;-79
2022/07/06 00:28:03;;;;;;;11.10;8.00;;;;;;;19.39;71.82;93883.19;5009792;28;20038;-80
2022/07/06 00:30:29;;;;;;;10.23;8.27;;;;;;;19.17;71.82;93870.56;5026512;28;20379;-80
2022/07/06 00:32:54;;;;;;;10.93;7.72;;;;;;;19.28;71.94;93876.88;5010687;28;20042;-79
2022/07/06 00:35:20;;;;;;;8.05;6.25;;;;;;;19.50;71.83;93911.13;5010675;28;20381;-80
2022/07/06 00:37:45;;;;;;;10.45;8.35;;;;;;;19.42;72.30;93908.63;5010486;28;20037;-79
2022/07/06 00:40:11;;;;;;;8.43;6.50;;;;;;;19.39;72.75;93904.75;5011476;28;20597;-81
2022/07/06 00:42:44;;;;;;;9.15;7.10;;;;;;;19.60;71.43;93880.00;5008324;28;20065;-80
2022/07/06 00:45:11;;;;;;;8.60;6.97;;;;;;;19.91;70.70;93901.16;5009994;28;20128;-80
2022/07/06 00:47:37;;;;;;;10.07;7.43;;;;;;;19.74;70.39;93872.84;5011354;28;20033;-79
2022/07/06 00:50:13;;;;;;;10.93;7.00;;;;;;;20.02;69.78;93899.34;5011398;28;20308;-80
2022/07/06 00:52:42;;;;;;;8.70;6.40;;;;;;;20.21;69.14;93901.09;5010896;28;20033;-79
2022/07/06 00:55:09;;;;;;;6.95;5.93;;;;;;;20.02;68.04;93848.06;5009596;28;20418;-79
2022/07/06 00:57:35;;;;;;;10.57;7.75;;;;;;;20.41;67.87;93875.44;5009867;28;20063;-79
2022/07/06 01:00:06;;;;;;;8.73;6.72;;;;;;;20.20;67.70;93855.56;5025608;28;20112;-80
2022/07/06 01:02:33;;;;;;;10.32;6.60;;;;;;;20.01;69.23;93872.72;5009910;28;20140;-80
2022/07/06 01:04:59;;;;;;;7.32;6.18;;;;;;;19.66;68.84;93789.47;5011277;28;20725;-79
2022/07/06 01:07:25;;;;;;;9.73;7.07;;;;;;;19.90;67.83;93804.34;5008941;28;20692;-79
2022/07/06 01:09:50;;;;;;;8.48;6.53;;;;;;;20.24;67.67;93842.91;5009608;28;20490;-79
2022/07/06 01:12:18;;;;;;;8.77;6.38;;;;;;;20.45;66.95;93840.34;5008753;28;20048;-79
2022/07/06 01:14:44;;;;;;;9.98;5.53;;;;;;;19.75;66.21;93723.28;5010316;28;20034;-80
2022/07/06 01:17:10;;;;;;;7.22;6.03;;;;;;;20.67;65.58;93841.28;5008990;28;20469;-79
2022/07/06 01:19:35;;;;;;;7.70;6.63;;;;;;;20.45;65.42;93808.72;5009772;28;20125;-79
2022/07/06 01:22:01;;;;;;;10.18;6.80;;;;;;;20.53;64.96;93809.56;5008256;28;20030;-79
2022/07/06 01:24:26;;;;;;;8.23;6.68;;;;;;;20.73;65.21;93845.19;5008852;28;20521;-81
2022/07/06 01:26:52;;;;;;;9.40;7.13;;;;;;;20.46;65.49;93831.88;5010027;28;20521;-79
2022/07/06 01:29:18;;;;;;;9.32;6.97;;;;;;;20.54;65.47;93849.69;5008456;28;20493;-80
2022/07/06 01:31:48;;;;;;;7.78;5.72;;;;;;;20.46;65.32;93826.47;5009524;28;20068;-79
2022/07/06 01:34:14;;;;;;;9.38;6.75;;;;;;;20.49;65.81;93852.72;5010313;28;20072;-80
2022/07/06 01:36:40;;;;;;;10.25;7.07;;;;;;;20.47;65.35;93828.03;5008738;28;20068;-80
2022/07/06 01:39:08;;;;;;;10.05;7.03;;;;;;;20.30;66.42;93855.66;5023029;28;20148;-80
2022/07/06 01:41:34;;;;;;;6.82;6.05;;;;;;;20.45;65.69;93843.81;5009246;28;20029;-80
2022/07/06 01:43:59;;;;;;;7.90;5.53;;;;;;;20.54;65.12;93849.69;5007110;28;20022;-80
2022/07/06 01:46:24;;;;;;;8.43;6.30;;;;;;;20.63;64.60;93851.31;5011406;28;22395;-80
2022/07/06 01:48:50;;;;;;;6.28;4.60;;;;;;;20.49;64.17;93830.34;5009816;28;20433;-79
2022/07/06 01:51:15;;;;;;;7.85;5.45;;;;;;;20.57;64.00;93848.94;5009565;28;20033;-80
2022/07/06 01:53:41;;;;;;;9.20;6.20;;;;;;;20.50;64.26;93838.06;5009550;28;20038;-79
2022/07/06 01:56:07;;;;;;;6.07;5.22;;;;;;;20.55;64.51;93848.53;5007239;28;20497;-80
2022/07/06 01:58:32;;;;;;;7.40;6.22;;;;;;;20.67;64.38;93852.88;5010685;28;20108;-79
2022/07/06 02:00:59;;;;;;;5.80;5.18;;;;;;;20.43;65.32;93856.94;5007451;28;20554;-79
2022/07/06 02:03:24;;;;;;;7.40;6.00;;;;;;;19.89;65.56;93840.59;5008788;28;20044;-80
2022/07/06 02:05:50;;;;;;;9.05;6.03;;;;;;;20.00;65.88;93852.25;5009418;28;20030;-79
2022/07/06 02:08:15;;;;;;;8.35;6.22;;;;;;;20.27;65.40;93844.84;5012019;28;20053;-79
2022/07/06 02:10:41;;;;;;;7.97;6.35;;;;;;;20.19;64.17;93819.69;5008330;28;20041;-79
2022/07/06 02:13:06;;;;;;;8.43;6.13;;;;;;;20.49;63.85;93847.31;5008797;28;20041;-80
2022/07/06 02:15:31;;;;;;;6.95;5.28;;;;;;;20.56;63.07;93847.38;5009321;28;20025;-80
2022/07/06 02:17:57;;;;;;;9.00;5.90;;;;;;;20.55;62.55;93837.72;5013271;28;20513;-80
2022/07/06 02:20:22;;;;;;;5.65;4.82;;;;;;;20.41;62.13;93834.94;5026350;28;20034;-81
2022/07/06 02:22:48;;;;;;;8.80;6.03;;;;;;;20.47;62.30;93854.25;5013079;28;20029;-79
2022/07/06 02:25:13;;;;;;;9.38;6.53;;;;;;;20.60;62.63;93853.59;5012797;28;21052;-79
2022/07/06 02:27:38;;;;;;;7.65;5.82;;;;;;;20.54;62.31;93846.97;5011633;28;20044;-81
2022/07/06 02:30:05;;;;;;;7.32;5.68;;;;;;;20.38;62.24;93830.28;5012445;28;20611;-79
2022/07/06 02:32:30;;;;;;;8.73;6.22;;;;;;;20.32;61.88;93815.56;5012678;28;20625;-79
2022/07/06 02:34:56;;;;;;;8.52;6.50;;;;;;;20.45;61.92;93821.44;5016470;28;20430;-79
2022/07/06 02:37:21;;;;;;;8.40;5.47;;;;;;;20.33;62.01;93819.81;5012807;28;20967;-80
2022/07/06 02:39:47;;;;;;;8.23;6.22;;;;;;;20.11;61.35;93823.44;5012919;28;20041;-80
2022/07/06 02:42:13;;;;;;;6.65;5.90;;;;;;;20.33;61.85;93840.66;5018136;28;20464;-79
2022/07/06 02:44:38;;;;;;;8.73;5.90;;;;;;;20.32;61.50;93839.09;5010814;28;20042;-80
2022/07/06 02:47:03;;;;;;;8.00;6.05;;;;;;;19.79;61.26;93825.09;5012562;28;20037;-80
2022/07/06 02:49:29;;;;;;;8.98;5.95;;;;;;;19.17;62.14;93793.16;5013690;28;20108;-79
2022/07/06 02:51:54;;;;;;;6.55;5.60;;;;;;;19.33;62.11;93780.25;5012724;28;20886;-80
2022/07/06 02:54:20;;;;;;;8.35;6.55;;;;;;;19.81;62.25;93817.38;5026595;28;20120;-80
2022/07/06 02:56:50;;;;;;;9.27;6.32;;;;;;;19.87;62.01;93818.59;5013246;28;20033;-79
2022/07/06 02:59:16;;;;;;;6.07;5.45;;;;;;;19.70;61.95;93839.63;5009587;28;20038;-79
2022/07/06 03:01:41;;;;;;;6.20;5.47;;;;;;;19.48;61.52;93818.97;5012250;28;20378;-81
2022/07/06 03:04:07;;;;;;;7.88;5.70;;;;;;;19.26;62.55;93830.66;5012628;28;20045;-80
2022/07/06 03:06:32;;;;;;;8.02;4.65;;;;;;;19.21;62.60;93849.84;5017624;28;20201;-79
2022/07/06 03:08:57;;;;;;;7.47;6.28;;;;;;;19.17;63.60;93816.66;5012083;28;20306;-79
2022/07/06 03:11:23;;;;;;;6.00;5.15;;;;;;;19.29;63.47;93843.38;5010510;28;20426;-79
2022/07/06 03:13:48;;;;;;;6.18;4.63;;;;;;;19.04;63.41;93820.72;5013876;28;20819;-79
2022/07/06 03:16:14;;;;;;;7.95;4.85;;;;;;;19.01;62.10;93840.34;5016480;28;20502;-80
2022/07/06 03:18:39;;;;;;;5.72;4.32;;;;;;;19.07;63.08;93839.63;5010804;28;20033;-79
2022/07/06 03:21:04;;;;;;;7.82;5.00;;;;;;;18.81;64.77;93837.78;5011752;28;20037;-80
2022/07/06 03:23:30;;;;;;;5.75;4.38;;;;;;;19.01;64.20;93867.28;5012962;28;20037;-79
2022/07/06 03:25:56;;;;;;;9.43;5.18;;;;;;;18.50;65.20;93848.03;5011397;28;20474;-79
2022/07/06 03:28:21;;;;;;;5.35;4.18;;;;;;;18.11;65.86;93863.56;5025115;28;20196;-79
2022/07/06 03:30:46;;;;;;;6.47;3.60;;;;;;;18.12;66.65;93848.97;5009917;28;20034;-80
2022/07/06 03:33:12;;;;;;;5.15;3.83;;;;;;;18.24;67.09;93868.41;5011492;28;20565;-80
2022/07/06 03:35:37;;;;;;;7.78;4.35;;;;;;;18.04;67.44;93862.28;5010625;28;20030;-79
2022/07/06 03:38:03;;;;;;;6.00;3.70;;;;;;;18.48;66.62;93881.47;5010688;28;20044;-81
2022/07/06 03:40:28;;;;;;;5.25;4.43;;;;;;;18.37;65.85;93836.69;5012136;28;20018;-79
2022/07/06 03:42:53;;;;;;;6.53;3.38;;;;;;;18.70;65.83;93869.16;5012043;28;20498;-79
2022/07/06 03:45:19;;;;;;;5.05;4.40;;;;;;;18.69;65.42;93867.56;5010340;28;20037;-79
2022/07/06 03:47:44;;;;;;;4.80;3.45;;;;;;;18.61;65.10;93870.53;5012739;28;20620;-80
2022/07/06 03:50:09;;;;;;;4.95;3.55;;;;;;;18.60;64.33;93850.91;5012815;28;20034;-79
2022/07/06 03:52:39;;;;;;;4.53;3.28;;;;;;;18.45;64.00;93849.91;5012148;28;20109;-79
2022/07/06 03:55:11;;;;;;;5.32;4.28;;;;;;;18.56;64.08;93839.28;5011288;28;20189;-79
2022/07/06 03:57:37;;;;;;;4.75;3.60;;;;;;;18.36;65.24;93851.28;5010620;28;20034;-80
2022/07/06 04:00:04;;;;;;;4.15;3.05;;;;;;;18.65;65.25;93877.53;5011933;28;20038;-79
2022/07/06 04:02:29;;;;;;;6.10;3.75;;;;;;;18.42;66.11;93869.47;5008102;28;20083;-80
2022/07/06 04:04:54;;;;;;;5.75;3.30;;;;;;;18.51;65.28;93831.53;5024936;28;20030;-79
2022/07/06 04:07:20;;;;;;;4.85;3.35;;;;;;;18.83;64.95;93888.59;5011049;28;20045;-79
2022/07/06 04:09:45;;;;;;;4.25;3.22;;;;;;;18.41;66.01;93851.00;5025179;28;20064;-79
2022/07/06 04:12:11;;;;;;;4.00;3.08;;;;;;;18.55;65.37;93875.44;5009701;28;20030;-80
2022/07/06 04:14:36;;;;;;;5.05;3.40;;;;;;;18.92;65.69;93891.03;5011338;28;20429;-81
2022/07/06 04:19:46;;;;;;;5.15;3.67;;;;;;;18.88;65.00;93886.34;5011832;28;21017;-81
2022/07/06 04:22:11;;;;;;;7.93;4.03;;;;;;;18.74;64.93;93879.97;5010660;28;20030;-79
2022/07/06 04:24:37;;;;;;;4.97;3.88;;;;;;;18.27;66.61;93867.69;5009535;28;20990;-79
2022/07/06 04:27:02;;;;;;;5.38;3.88;;;;;;;18.38;66.81;93892.09;5011695;28;20509;-79
2022/07/06 04:29:28;;;;;;;4.00;3.13;;;;;;;18.33;67.10;93898.53;5008852;28;20056;-79
2022/07/06 04:31:53;;;;;;;6.88;4.03;;;;;;;18.33;67.60;93881.63;5011263;28;20021;-79
2022/07/06 04:34:19;;;;;;;7.68;3.70;;;;;;;18.39;66.71;93886.34;5009026;28;20089;-80
2022/07/06 04:36:44;;;;;;;5.47;4.05;;;;;;;18.55;66.58;93886.22;5010981;28;20516;-78
2022/07/06 04:39:09;;;;;;;5.20;3.78;;;;;;;18.80;66.86;93910.88;5008761;28;20040;-79
2022/07/06 04:41:35;;;;;;;5.57;4.28;;;;;;;19.00;66.93;93916.94;5010672;28;20086;-79
2022/07/06 04:44:00;;;;;;;7.35;4.50;;;;;;;18.79;65.13;93887.75;5009297;28;20477;-80
2022/07/06 04:46:25;;;;;;;6.05;3.53;;;;;;;18.60;66.32;93928.22;5010910;28;20037;-79
2022/07/06 04:48:51;;;;;;;5.40;4.32;;;;;;;18.28;67.10;93915.03;5009338;28;20125;-79
2022/07/06 04:51:17;;;;;;;7.90;4.50;;;;;;;17.83;69.99;93945.31;5010778;28;21131;-79
2022/07/06 04:53:43;;;;;;;10.00;5.25;;;;;;;17.64;70.91;93939.94;5010737;28;20045;-79
2022/07/06 04:56:08;;;;;;;7.75;5.18;;;;;;;17.27;72.48;93939.53;5009698;28;20029;-79
2022/07/06 04:58:34;;;;;;;6.60;4.63;;;;;;;17.26;73.62;93962.16;5011614;28;20137;-79
2022/07/06 05:00:59;;;;;;;13.68;6.63;;;;;;;17.13;73.29;93948.09;5009048;28;20038;-81
2022/07/06 05:03:25;;;;;;;10.35;7.07;;;;;;;17.24;73.05;93955.59;5009274;28;20037;-80
2022/07/06 05:05:50;;;;;;;14.05;6.93;;;;;;;17.11;73.37;93942.25;5007343;28;20425;-82
2022/07/06 05:08:16;;;;;;;8.43;5.80;;;;;;;17.35;72.93;93964.69;5006325;28;20057;-79
2022/07/06 05:10:41;;;;;;;10.35;6.25;;;;;;;17.21;73.66;93973.19;5011653;28;20714;-79
2022/07/06 05:13:06;;;;;;;10.63;7.22;;;;;;;17.10;74.20;93972.94;5009513;28;20107;-79
2022/07/06 05:15:32;;;;;;;8.95;6.65;;;;;;;17.16;73.75;93968.88;5025226;28;20077;-80
2022/07/06 05:17:57;;;;;;;11.07;6.97;;;;;;;17.00;73.73;93978.84;5008926;28;20114;-81
2022/07/06 05:20:23;;;;;;;7.68;6.15;;;;;;;17.04;73.93;93947.47;5023850;28;20026;-80
2022/07/06 05:22:48;;;;;;;13.38;6.28;;;;;;;17.27;73.19;93965.63;5015352;28;20026;-79
2022/07/06 05:25:14;;;;;;;10.23;5.97;;;;;;;17.26;72.82;93947.97;5010337;28;20235;-80
2022/07/06 05:27:39;;;;;;;11.00;6.65;;;;;;;17.21;72.60;93983.19;5009369;28;20116;-80
2022/07/06 05:30:05;;;;;;;8.77;6.38;;;;;;;16.95;73.43;93967.59;5010166;28;20120;-80
2022/07/06 05:32:31;;;;;;;9.23;6.57;;;;;;;17.05;73.14;93969.75;5008447;28;20558;-80
2022/07/06 05:34:56;;;;;;;11.85;6.38;;;;;;;16.91;72.73;93948.72;5014905;28;20025;-80
2022/07/06 05:37:22;;;;;;;8.77;6.30;;;;;;;16.87;73.03;93929.03;5007885;28;20760;-79
2022/07/06 05:39:49;;;;;;;15.18;6.60;;;;;;;17.06;72.65;93944.44;5009588;28;20029;-79
2022/07/06 05:42:14;;;;;;;11.07;6.55;;;;;;;17.50;71.70;93982.69;5013169;28;20029;-78
2022/07/06 05:44:40;;;;;;;8.93;5.47;;;;;;;17.24;70.72;93947.53;5009243;28;20034;-79
2022/07/06 05:52:34;;;;;;;7.28;5.20;;;;;;;17.58;69.97;93987.06;5007359;28;20081;-80
2022/07/06 05:54:59;;;;;;;10.25;6.60;;;;;;;17.38;70.46;93962.06;5008303;28;20045;-80
2022/07/06 05:57:25;;;;;;;9.10;6.30;;;;;;;17.71;70.85;93991.16;5006017;28;20037;-79
2022/07/06 05:59:50;;;;;;;10.70;6.57;;;;;;;17.68;69.72;93983.03;5004082;28;20045;-80
2022/07/06 06:02:15;;;;;;;8.50;6.47;;;;;;;17.42;70.44;93962.13;5004298;28;20065;-80
2022/07/06 06:04:41;;;;;;;10.52;6.25;;;;;;;17.60;70.59;93960.56;5006978;28;20160;-80
2022/07/06 06:07:06;;;;;;;10.27;6.18;;;;;;;17.59;70.62;93984.03;5004610;28;20050;-80
2022/07/06 06:09:32;;;;;;;10.60;6.70;;;;;;;17.08;69.94;93893.81;5013673;28;20042;-79
2022/07/06 06:11:57;;;;;;;8.52;5.78;;;;;;;17.63;69.40;93962.59;5003347;28;20040;-80
2022/07/06 06:14:22;;;;;;;10.05;6.75;;;;;;;17.76;69.93;93982.81;5003639;28;20137;-80
2022/07/06 06:16:48;;;;;;;12.10;7.38;;;;;;;17.63;70.31;93961.78;5006930;28;20413;-80
2022/07/06 06:19:13;;;;;;;12.05;5.70;;;;;;;18.02;69.71;93982.22;5004216;28;20532;-80
2022/07/06 06:21:39;;;;;;;10.80;6.35;;;;;;;18.13;68.00;93985.09;4999974;28;20042;-80
2022/07/06 06:24:04;;;;;;;9.95;6.93;;;;;;;18.13;68.76;93979.72;5004513;28;20743;-80
2022/07/06 06:26:30;;;;;;;10.00;6.45;;;;;;;18.00;68.51;93969.09;5001360;28;20136;-80
2022/07/06 06:28:55;;;;;;;10.82;6.50;;;;;;;18.00;67.98;93966.41;5006899;28;20036;-80
2022/07/06 06:31:20;;;;;;;10.73;6.82;;;;;;;17.58;68.50;93938.66;5004402;28;20470;-80
2022/07/06 06:33:46;;;;;;;10.35;7.70;;;;;;;18.06;68.28;93952.66;5019969;28;20169;-80
2022/07/06 06:36:12;;;;;;;7.97;6.10;;;;;;;17.97;69.41;93952.91;5003464;28;20046;-80
2022/07/06 06:38:37;;;;;;;11.73;7.20;;;;;;;17.89;71.06;93965.38;5004272;28;20044;-80
2022/07/06 06:41:03;;;;;;;9.45;6.22;;;;;;;17.81;71.30;93979.84;5002586;28;20041;-82
2022/07/06 06:43:28;;;;;;;11.13;6.85;;;;;;;17.50;71.81;93958.47;5003669;28;20025;-81
2022/07/06 06:45:54;;;;;;;11.82;7.10;;;;;;;17.75;71.89;93951.66;5006379;28;20053;-80
2022/07/06 06:48:19;;;;;;;13.45;7.72;;;;;;;18.03;71.86;93976.47;4999434;28;20050;-81
2022/07/06 06:50:45;;;;;;;10.85;7.13;;;;;;;18.32;70.98;93977.00;5003133;28;20456;-79
2022/07/06 06:53:11;;;;;;;11.25;7.28;;;;;;;18.11;70.62;93949.69;5003024;28;20057;-79
2022/07/06 06:55:36;;;;;;;12.10;8.73;;;;;;;18.13;70.25;93958.19;5005504;28;20484;-81
2022/07/06 06:58:02;;;;;;;12.57;7.97;;;;;;;18.22;71.62;93961.44;5007117;28;20033;-81
2022/07/06 07:00:27;;;;;;;13.35;8.18;;;;;;;18.14;70.78;93959.75;5005828;28;20573;-81
2022/07/06 07:02:53;;;;;;;11.18;8.07;;;;;;;18.28;70.52;93955.41;5005184;28;20030;-80
2022/07/06 07:05:18;;;;;;;14.30;8.80;;;;;;;18.19;69.58;93951.34;5008051;28;20121;-80
2022/07/06 07:07:44;;;;;;;11.70;8.73;;;;;;;18.25;69.59;93933.78;5007393;28;20048;-80
2022/07/06 07:10:09;;;;;;;11.98;8.68;;;;;;;18.33;70.13;93967.78;5003206;28;20091;-80
2022/07/06 07:12:35;;;;;;;14.32;8.90;;;;;;;18.39;70.36;93956.34;5010097;28;20057;-81
2022/07/06 07:15:01;;;;;;;13.57;8.63;;;;;;;18.35;69.70;93971.66;5006985;28;20042;-80
2022/07/06 07:17:27;;;;;;;13.07;9.35;;;;;;;18.37;69.44;93947.09;5008206;28;20049;-80
2022/07/06 07:19:52;;;;;;;12.30;9.23;;;;;;;18.60;68.72;93972.09;5011165;28;20135;-79
2022/07/06 07:22:18;;;;;;;13.75;8.80;;;;;;;18.50;67.72;93983.47;5009278;28;20048;-80
2022/07/06 07:24:43;;;;;;;12.30;9.55;;;;;;;18.29;68.76;93967.72;5008823;28;20041;-79
2022/07/06 07:27:09;;;;;;;16.15;9.68;;;;;;;18.44;68.97;93982.97;5007823;28;20044;-79
2022/07/06 07:29:34;;;;;;;14.38;9.18;;;;;;;18.54;68.71;93970.84;5007098;28;20048;-79
2022/07/06 07:31:59;;;;;;;13.30;10.38;;;;;;;18.30;67.69;93952.34;5021924;28;20068;-79
2022/07/06 07:34:25;;;;;;;15.02;10.13;;;;;;;18.60;67.59;93985.56;5006867;28;20022;-79
2022/07/06 07:36:50;;;;;;;16.83;9.77;;;;;;;18.67;67.68;93960.69;5006653;28;20114;-79
2022/07/06 07:39:16;;;;;;;12.68;9.48;;;;;;;18.93;67.64;93974.19;5004782;28;20066;-80
2022/07/06 07:41:41;;;;;;;13.93;9.60;;;;;;;18.42;66.78;93872.19;5007630;28;20128;-79
2022/07/06 07:44:06;;;;;;;14.45;9.55;;;;;;;19.00;66.37;93941.19;5008295;28;20091;-80
2022/07/06 07:46:32;;;;;;;15.43;10.95;;;;;;;19.14;65.68;93963.75;5011264;28;20025;-80
2022/07/06 07:48:57;;;;;;;13.68;10.15;;;;;;;19.07;65.81;93943.97;5022400;28;20040;-79
2022/07/06 07:51:22;;;;;;;17.38;10.13;;;;;;;19.24;65.70;93978.53;5007592;28;20616;-81
2022/07/06 07:53:48;;;;;;;12.88;9.18;;;;;;;19.24;65.00;93952.34;5007855;28;20041;-80
2022/07/06 07:56:13;;;;;;;11.88;9.48;;;;;;;19.42;64.15;93952.56;5006802;28;20469;-79
2022/07/06 07:58:39;;;;;;;12.90;9.27;;;;;;;19.47;64.77;93967.69;5008138;28;20379;-79
2022/07/06 08:01:04;;;;;;;13.98;10.13;;;;;;;19.56;65.79;93968.97;5004723;28;20056;-79
2022/07/06 08:03:31;;;;;;;14.27;9.73;;;;;;;19.38;65.95;93967.94;5019715;28;20413;-80
2022/07/06 08:05:57;;;;;;;16.77;11.57;;;;;;;19.33;67.57;93960.16;5006674;28;20063;-81
2022/07/06 08:08:22;;;;;;;13.35;9.10;;;;;;;19.29;68.22;93940.47;4999288;28;20843;-80
2022/07/06 08:10:47;;;;;;;15.02;9.10;;;;;;;19.42;65.82;93954.47;5003885;28;20029;-80
2022/07/06 08:13:14;;;;;;;12.18;9.48;;;;;;;19.36;65.32;93956.72;4998879;28;20117;-80
2022/07/06 08:15:40;;;;;;;11.60;9.02;;;;;;;19.61;66.11;93970.56;5006062;28;20416;-80
2022/07/06 08:18:05;;;;;;;14.40;9.65;;;;;;;19.31;65.95;93940.88;4996899;28;20038;-80
2022/07/06 08:20:31;;;;;;;14.30;9.10;;;;;;;19.50;65.08;93983.94;4996367;28;20683;-80
2022/07/06 08:22:56;;;;;;;11.52;8.60;;;;;;;19.34;65.61;93977.91;5000262;28;20286;-83
2022/07/06 08:25:22;;;;;;;14.60;9.38;;;;;;;19.43;65.97;93980.31;4998736;28;20513;-82
2022/07/06 08:27:48;;;;;;;11.40;8.40;;;;;;;19.31;65.71;93938.19;5004543;28;20041;-83
2022/07/06 08:30:13;;;;;;;14.30;8.90;;;;;;;19.71;65.60;93973.41;5005297;28;20049;-83
2022/07/06 08:32:41;;;;;;;14.48;9.07;;;;;;;19.95;64.75;93974.06;5006218;28;20080;-83
2022/07/06 08:35:07;;;;;;;12.73;9.80;;;;;;;19.67;65.06;93963.72;5003663;28;20107;-82
2022/07/06 08:37:33;;;;;;;12.50;8.95;;;;;;;19.61;64.99;93938.97;5007943;28;20414;-83
2022/07/06 08:39:58;;;;;;;11.80;9.15;;;;;;;19.75;64.02;93943.75;5000956;28;20064;-83
2022/07/06 08:42:34;;;;;;;13.18;8.70;;;;;;;19.45;64.10;93924.91;5007739;28;20040;-82
2022/07/06 08:45:03;;;;;;;14.57;9.77;;;;;;;19.82;65.17;93964.66;5006118;28;20503;-82
2022/07/06 08:47:30;;;;;;;11.75;9.23;;;;;;;19.63;65.66;93955.59;5002909;28;20030;-81
2022/07/06 08:49:56;;;;;;;13.05;9.10;;;;;;;19.46;66.79;93934.53;5010828;28;20128;-82
2022/07/06 08:52:23;;;;;;;12.30;9.60;;;;;;;19.31;65.88;93927.41;5004923;28;20017;-82
2022/07/06 08:54:48;;;;;;;14.15;10.00;;;;;;;19.75;67.34;93952.63;5008643;28;20040;-83
2022/07/06 08:57:14;;;;;;;13.95;9.75;;;;;;;19.56;65.02;93922.31;5005984;28;20993;-82
2022/07/06 08:59:40;;;;;;;13.73;9.88;;;;;;;19.97;64.81;93971.78;5005151;28;20434;-83
2022/07/06 09:02:06;;;;;;;15.57;10.02;;;;;;;20.17;64.75;93965.09;5007733;28;20124;-83
2022/07/06 09:04:35;;;;;;;13.05;10.48;;;;;;;20.18;64.47;93945.06;5006652;28;20105;-82
2022/07/06 09:07:01;;;;;;;13.38;9.13;;;;;;;20.31;62.79;93957.16;5004128;28;20567;-82
2022/07/06 09:09:30;;;;;;;14.38;10.77;;;;;;;20.51;63.97;93945.00;5004895;28;20053;-83
2022/07/06 09:11:57;;;;;;;14.27;10.73;;;;;;;20.55;63.59;93964.72;5006160;28;20025;-84
2022/07/06 09:14:22;;;;;;;11.82;8.85;;;;;;;20.50;63.10;93956.16;5007303;28;20041;-83
2022/07/06 09:16:52;;;;;;;12.05;9.00;;;;;;;20.59;61.38;93965.50;5006087;28;20026;-83
2022/07/06 09:19:18;;;;;;;12.57;8.30;;;;;;;20.49;61.27;93947.28;5011475;28;20604;-83
2022/07/06 09:21:43;;;;;;;12.68;10.25;;;;;;;20.41;62.10;93953.78;5006152;28;20046;-82
2022/07/06 09:24:12;;;;;;;11.45;8.95;;;;;;;20.12;61.96;93935.72;5003606;28;20418;-83
2022/07/06 09:26:39;;;;;;;13.15;9.60;;;;;;;20.13;62.88;93953.47;5007464;28;20148;-82
2022/07/06 09:29:05;;;;;;;15.43;9.57;;;;;;;20.30;63.90;93944.78;5024404;28;20516;-81
2022/07/06 09:31:31;;;;;;;13.98;9.48;;;;;;;20.32;61.86;93964.09;5006582;28;20026;-82
2022/07/06 09:33:57;;;;;;;14.50;8.65;;;;;;;20.48;62.54;93961.19;5006874;28;20025;-82
2022/07/06 09:36:42;;;;;;;13.35;9.63;;;;;;;20.53;61.85;93955.44;5009133;28;20057;-83
2022/07/06 09:39:22;;;;;;;;;;;;;;;20.70;61.07;93956.72;5001290;28;20065;-81
2022/07/06 09:41:50;;;;;;;12.02;8.57;;;;;;;20.67;60.94;93949.38;5003252;28;19917;-82
2022/07/06 09:44:26;;;;;;;10.60;8.50;;;;;;;20.63;62.62;93945.88;5005346;28;20137;-82
2022/07/06 09:46:52;;;;;;;12.05;9.07;;;;;;;20.60;60.25;93950.88;4989933;28;20030;-83
2022/07/06 09:49:21;;;;;;;15.43;9.88;;;;;;;20.47;61.06;93925.28;5005484;28;20375;-83
2022/07/06 09:51:52;;;;;;;13.18;10.13;;;;;;;20.44;62.46;93953.03;5006685;28;20038;-83
2022/07/06 09:54:18;;;;;;;15.98;10.98;;;;;;;20.53;61.68;93947.34;5004271;28;20108;-81
2022/07/06 09:56:50;;;;;;;16.30;11.80;;;;;;;20.13;62.40;93915.66;5007004;28;20095;-81
2022/07/06 09:59:16;;;;;;;14.93;10.77;;;;;;;20.34;61.31;93953.69;5003213;28;20062;-83
2022/07/06 10:01:43;;;;;;;17.50;12.57;;;;;;;20.49;62.26;93954.59;5003849;28;20033;-82
2022/07/06 10:04:12;;;;;;;14.50;10.13;;;;;;;20.26;61.33;93933.19;5004013;28;20034;-82
2022/07/06 10:06:38;;;;;;;18.95;11.88;;;;;;;20.26;62.24;93952.06;5005435;28;20046;-83
2022/07/06 10:09:08;;;;;;;13.60;10.45;;;;;;;20.26;62.22;93949.38;5001553;28;21254;-81
2022/07/06 10:11:38;;;;;;;17.00;10.95;;;;;;;20.26;61.32;93938.56;5005947;28;20034;-82
2022/07/06 10:14:06;;;;;;;17.05;10.60;;;;;;;20.00;61.65;93922.44;5003083;28;20292;-81
2022/07/06 10:16:35;;;;;;;16.40;11.57;;;;;;;20.32;62.95;93929.00;5011749;28;21211;-82
2022/07/06 10:19:03;;;;;;;15.65;11.10;;;;;;;20.25;62.65;93917.34;5005483;28;20041;-82
2022/07/06 10:21:30;;;;;;;14.98;9.98;;;;;;;19.97;61.44;93909.69;5010692;28;20029;-83
2022/07/06 10:23:59;;;;;;;14.27;10.50;;;;;;;20.25;61.88;93937.00;5001521;28;20037;-83
2022/07/06 10:26:25;;;;;;;13.55;9.48;;;;;;;20.23;61.08;93920.44;5003604;28;20040;-83
2022/07/06 10:28:52;;;;;;;14.35;10.38;;;;;;;20.40;61.58;93936.00;5010977;28;20025;-83
2022/07/06 10:31:19;;;;;;;14.35;10.13;;;;;;;20.32;60.28;93917.41;4999207;28;20049;-83
2022/07/06 10:33:46;;;;;;;15.25;10.20;;;;;;;20.39;61.54;93937.16;5002805;28;20046;-83
2022/07/06 10:36:12;;;;;;;15.75;11.10;;;;;;;20.23;61.93;93920.44;5002650;28;20037;-83
2022/07/06 10:38:38;;;;;;;14.25;10.82;;;;;;;20.47;62.77;93929.91;5009580;28;20034;-82
2022/07/06 10:41:06;;;;;;;16.55;11.68;;;;;;;20.03;60.78;93897.44;5006587;28;20201;-81
2022/07/06 10:43:35;;;;;;;15.40;10.55;;;;;;;20.12;61.87;93931.09;5008637;28;20433;-82
2022/07/06 10:46:07;;;;;;;14.52;10.30;;;;;;;20.04;61.93;93923.28;5008153;28;20104;-80
2022/07/06 10:48:43;;;;;;;15.75;11.10;;;;;;;20.10;62.53;93932.59;5007317;28;20144;-82
2022/07/06 10:51:11;;;;;;;17.33;10.07;;;;;;;20.33;61.79;93930.56;5006768;28;20037;-81
2022/07/06 10:53:41;;;;;;;16.48;9.98;;;;;;;20.23;61.79;93936.63;5003224;28;20050;-82
2022/07/06 10:56:11;;;;;;;16.00;11.27;;;;;;;20.34;61.28;93923.19;5004758;28;20131;-82
2022/07/06 10:58:49;;;;;;;16.40;10.27;;;;;;;20.49;61.07;93928.38;5009030;28;20029;-79
2022/07/06 11:01:15;;;;;;;15.05;10.63;;;;;;;20.63;60.71;93916.16;5004929;28;20038;-81
2022/07/06 11:03:41;;;;;;;15.32;11.40;;;;;;;20.72;59.43;93930.13;5005651;28;20067;-83
2022/07/06 11:06:14;;;;;;;14.88;11.25;;;;;;;20.48;59.36;93924.09;5004441;28;20041;-83
2022/07/06 11:08:49;;;;;;;16.08;11.98;;;;;;;20.42;60.57;93932.94;5009529;28;20103;-78
2022/07/06 11:11:33;;;;;;;15.38;11.13;;;;;;;20.51;60.43;93926.09;5010566;28;20107;-81
2022/07/06 11:14:07;;;;;;;14.75;11.00;;;;;;;20.49;58.80;93908.69;5007257;28;20094;-83
2022/07/06 11:16:36;;;;;;;16.57;10.37;;;;;;;20.58;58.61;93909.91;5013638;28;20049;-82
2022/07/06 11:19:06;;;;;;;15.45;10.80;;;;;;;20.79;59.80;93922.06;5020981;28;20045;-80
2022/07/06 11:22:04;;;;;;;16.55;11.40;;;;;;;20.86;58.45;93922.13;5003179;28;20038;-80
2022/07/06 11:24:32;;;;;;;14.93;10.77;;;;;;;20.86;58.74;93919.41;5004986;28;20030;-80
2022/07/06 11:26:58;;;;;;;12.98;10.10;;;;;;;20.85;57.54;93912.44;5010597;28;20420;-83
2022/07/06 11:29:26;;;;;;;18.23;13.20;;;;;;;20.84;59.63;93898.16;5010010;28;20037;-82
2022/07/06 11:31:54;;;;;;;14.85;11.60;;;;;;;20.96;57.81;93895.19;5009286;28;20048;-82